Time;durP1;ratioP1;P1;durP2;ratioP2;P2;SDS_P1;SDS_P2;PMS_P1;PMS_P2;Temp;Humidity;BMP_temperature;BMP_pressure;BME280_temperature;BME280_humidity;BME280_pressure;Samples;Min_cycle;Max_cycle;Signal;HPM_P1;HPM_P2
2021/06/11 00:02:21;;;;;;;14.13;7.92;;;;;;;14.90;100.00;99394.75;1801500;79;21297;-82
2021/06/11 00:05:27;;;;;;;14.78;8.83;;;;;;;14.85;100.00;99387.70;1802318;79;21372;-82
2021/06/11 00:08:32;;;;;;;17.37;8.40;;;;;;;14.80;100.00;99395.80;1802321;79;21226;-82
2021/06/11 00:11:35;;;;;;;17.35;7.47;;;;;;;14.74;100.00;99385.16;1802886;79;21813;-82
2021/06/11 00:14:40;;;;;;;15.90;8.03;;;;;;;14.66;100.00;99385.44;1801275;79;21301;-82
2021/06/11 00:17:46;;;;;;;11.85;6.97;;;;;;;14.60;100.00;99385.52;1802896;79;21777;-82
2021/06/11 00:20:53;;;;;;;11.88;6.47;;;;;;;14.59;100.00;99379.70;1801645;79;21274;-82
2021/06/11 00:23:58;;;;;;;11.40;5.70;;;;;;;14.57;100.00;99382.66;1811476;79;21289;-82
2021/06/11 00:27:04;;;;;;;8.48;4.83;;;;;;;14.48;100.00;99382.09;1811419;79;21780;-81
2021/06/11 00:30:12;;;;;;;7.28;5.12;;;;;;;14.37;100.00;99386.92;1811349;79;21809;-82
2021/06/11 00:33:18;;;;;;;10.82;5.30;;;;;;;14.33;100.00;99388.43;1810048;79;21363;-82
2021/06/11 00:36:22;;;;;;;11.12;7.25;;;;;;;14.33;100.00;99391.19;1809804;79;21375;-82
2021/06/11 00:39:27;;;;;;;16.80;9.85;;;;;;;14.34;100.00;99387.36;1809950;79;21321;-82
2021/06/11 00:42:35;;;;;;;21.15;13.00;;;;;;;14.33;100.00;99393.94;1809940;79;21185;-82
2021/06/11 00:45:41;;;;;;;22.30;13.32;;;;;;;14.29;100.00;99387.19;1811334;79;21183;-82
2021/06/11 00:48:46;;;;;;;23.07;12.55;;;;;;;14.27;100.00;99392.08;1809810;79;21308;-82
2021/06/11 00:51:54;;;;;;;24.82;12.93;;;;;;;14.25;100.00;99390.06;1811341;79;21277;-82
2021/06/11 00:54:59;;;;;;;20.17;12.68;;;;;;;14.25;100.00;99395.03;1811305;79;21324;-82
2021/06/11 00:58:06;;;;;;;20.92;13.08;;;;;;;14.29;100.00;99398.19;1811372;79;21292;-82
2021/06/11 01:01:11;;;;;;;16.77;11.78;;;;;;;14.33;100.00;99391.19;1811400;79;21280;-82
2021/06/11 01:04:18;;;;;;;24.98;13.20;;;;;;;14.38;100.00;99394.11;1809663;79;21816;-82
2021/06/11 01:07:26;;;;;;;20.95;12.75;;;;;;;14.43;100.00;99395.65;1811323;79;21270;-82
2021/06/11 01:10:32;;;;;;;23.80;13.22;;;;;;;14.45;100.00;99400.41;1809930;79;21316;-82
2021/06/11 01:13:38;;;;;;;27.13;13.28;;;;;;;14.46;100.00;99403.47;1811467;79;21167;-82
2021/06/11 01:16:43;;;;;;;24.57;12.80;;;;;;;14.47;100.00;99400.18;1811506;79;21277;-82
2021/06/11 01:19:55;;;;;;;19.73;12.75;;;;;;;14.49;100.00;99411.32;1810689;79;21312;-82
2021/06/11 01:23:49;;;;;;;23.35;11.97;;;;;;;14.50;100.00;99403.91;1809045;79;21356;-82
2021/06/11 01:26:59;;;;;;;20.02;12.75;;;;;;;14.51;100.00;99400.92;1810109;79;21668;-82
2021/06/11 01:30:06;;;;;;;20.48;11.45;;;;;;;14.47;100.00;99403.77;1810223;79;21791;-82
2021/06/11 01:33:12;;;;;;;23.15;13.05;;;;;;;14.46;100.00;99414.47;1809813;79;21202;-82
2021/06/11 01:36:20;;;;;;;22.60;13.88;;;;;;;14.38;100.00;99409.23;1811463;79;21281;-82
2021/06/11 01:39:28;;;;;;;22.45;12.55;;;;;;;14.41;100.00;99412.92;1811083;79;21218;-82
2021/06/11 01:42:38;;;;;;;22.62;12.70;;;;;;;14.42;100.00;99418.73;1811364;79;21304;-82
2021/06/11 01:45:44;;;;;;;20.88;12.58;;;;;;;14.43;100.00;99414.91;1811595;79;21282;-82
2021/06/11 01:48:51;;;;;;;18.73;13.38;;;;;;;14.44;100.00;99414.37;1811283;79;21731;-82
2021/06/11 01:51:57;;;;;;;18.00;12.50;;;;;;;14.47;100.00;99423.03;1811494;79;21183;-82
2021/06/11 01:55:02;;;;;;;33.02;11.43;;;;;;;14.47;100.00;99424.41;1811439;79;21877;-82
2021/06/11 01:58:08;;;;;;;21.02;13.22;;;;;;;14.50;100.00;99419.88;1811445;79;21178;-82
2021/06/11 02:01:13;;;;;;;19.42;12.23;;;;;;;14.59;100.00;99412.73;1810041;79;21737;-82
2021/06/11 02:04:18;;;;;;;21.60;14.28;;;;;;;14.78;100.00;99414.47;1810047;79;21341;-82
2021/06/11 02:07:23;;;;;;;27.65;17.42;;;;;;;15.08;100.00;99411.30;1811537;79;21300;-82
2021/06/11 02:10:30;;;;;;;31.10;18.65;;;;;;;15.43;100.00;99414.00;1810784;79;21289;-82
2021/06/11 02:13:36;;;;;;;26.35;16.48;;;;;;;15.70;100.00;99415.39;1811606;79;21296;-82
2021/06/11 02:16:42;;;;;;;23.52;13.80;;;;;;;15.97;100.00;99414.52;1811134;79;21221;-82
2021/06/11 02:19:46;;;;;;;26.97;15.30;;;;;;;16.25;100.00;99425.48;1811240;79;21899;-82
2021/06/11 02:22:52;;;;;;;21.12;11.40;;;;;;;16.53;100.00;99414.64;1810301;79;21281;-82
2021/06/11 02:25:58;;;;;;;14.83;8.88;;;;;;;16.68;98.80;99415.56;1803040;79;21210;-82
2021/06/11 02:29:03;;;;;;;20.45;8.80;;;;;;;16.68;96.47;99414.73;1803010;79;21298;-82
2021/06/11 02:32:02;;;;;;;16.07;7.85;;;;;;;16.61;94.97;99423.13;1802530;79;21304;-82
2021/06/11 02:35:12;;;;;;;12.05;8.30;;;;;;;16.52;93.90;99424.02;1803049;79;21222;-82
2021/06/11 02:38:17;;;;;;;21.60;12.18;;;;;;;16.42;93.08;99427.89;1802941;79;21325;-82
2021/06/11 02:41:29;;;;;;;18.02;10.72;;;;;;;16.35;92.79;99425.21;1802050;79;21562;-82
2021/06/11 02:44:35;;;;;;;16.70;9.45;;;;;;;16.21;92.48;99428.41;1803049;79;21831;-82
2021/06/11 02:47:51;;;;;;;16.25;9.03;;;;;;;16.06;93.60;99430.21;1801728;79;21340;-82
2021/06/11 02:51:21;;;;;;;15.78;7.30;;;;;;;15.83;93.96;99426.26;1801182;79;21292;-82
2021/06/11 02:54:32;;;;;;;11.33;5.78;;;;;;;15.56;95.21;99425.70;1797413;79;21195;-82
2021/06/11 02:57:58;;;;;;;15.65;7.20;;;;;;;15.38;96.23;99431.75;1802651;79;21313;-82
2021/06/11 03:01:04;;;;;;;11.28;7.03;;;;;;;15.18;96.95;99430.59;1801944;79;21329;-82
2021/06/11 03:04:10;;;;;;;9.13;6.28;;;;;;;15.16;98.32;99432.75;1802808;79;21305;-82
2021/06/11 03:07:17;;;;;;;11.90;8.63;;;;;;;15.38;99.99;99431.22;1802580;79;21222;-82
2021/06/11 03:10:23;;;;;;;16.27;10.05;;;;;;;15.77;100.00;99430.49;1801900;79;21247;-82
2021/06/11 03:13:28;;;;;;;15.00;8.83;;;;;;;16.25;100.00;99433.77;1802478;79;21280;-82
2021/06/11 03:16:35;;;;;;;11.78;7.75;;;;;;;16.82;100.00;99440.53;1803063;79;21181;-82
2021/06/11 03:19:42;;;;;;;10.68;8.10;;;;;;;17.27;98.41;99438.58;1800907;79;21266;-82
2021/06/11 03:23:01;;;;;;;12.73;8.33;;;;;;;17.53;95.99;99436.37;1800203;79;21145;-82
2021/06/11 03:26:10;;;;;;;15.13;9.15;;;;;;;17.73;94.13;99427.16;1809726;79;21219;-82
2021/06/11 03:29:18;;;;;;;14.07;9.00;;;;;;;17.83;92.64;99429.30;1809789;79;21281;-82
2021/06/11 03:32:39;;;;;;;11.88;7.80;;;;;;;17.87;92.23;99432.71;1805537;79;21387;-82
2021/06/11 03:35:52;;;;;;;13.25;8.13;;;;;;;18.01;92.20;99429.67;1778091;80;21153;-82
2021/06/11 03:39:00;;;;;;;15.30;8.08;;;;;;;18.22;91.76;99430.37;1764043;80;21289;-82
2021/06/11 03:42:05;;;;;;;9.78;6.60;;;;;;;18.39;90.87;99431.78;1778582;80;21332;-82
2021/06/11 03:45:12;;;;;;;8.83;5.85;;;;;;;18.59;90.83;99436.32;1792998;79;21275;-82
2021/06/11 03:48:19;;;;;;;11.68;5.72;;;;;;;18.71;89.97;99435.43;1810533;79;21375;-82
2021/06/11 03:51:25;;;;;;;14.63;7.05;;;;;;;18.79;89.20;99442.78;1809958;79;21165;-82
2021/06/11 03:54:31;;;;;;;18.95;8.18;;;;;;;18.85;89.07;99442.32;1807065;79;21220;-82
2021/06/11 03:57:37;;;;;;;13.18;8.13;;;;;;;18.82;88.76;99444.20;1779445;80;21257;-82
2021/06/11 04:00:44;;;;;;;14.45;9.48;;;;;;;18.72;88.44;99446.25;1779488;80;21385;-82
2021/06/11 04:03:50;;;;;;;17.98;8.85;;;;;;;18.62;89.00;99443.27;1778769;80;21318;-82
2021/06/11 04:07:01;;;;;;;22.32;10.98;;;;;;;18.51;89.35;99442.81;1782465;79;21154;-82
2021/06/11 04:10:12;;;;;;;13.58;8.33;;;;;;;18.44;89.65;99442.95;1811361;79;21741;-82
2021/06/11 04:13:24;;;;;;;13.72;8.65;;;;;;;18.48;89.78;99439.14;1811586;79;21289;-82
2021/06/11 04:16:47;;;;;;;15.72;8.65;;;;;;;18.48;89.84;99435.83;1811363;79;21293;-82
2021/06/11 04:19:56;;;;;;;17.45;9.18;;;;;;;18.53;89.88;99433.14;1778168;80;21400;-82
2021/06/11 04:23:05;;;;;;;23.27;12.68;;;;;;;18.49;90.15;99441.69;1778029;80;21375;-82
2021/06/11 04:26:10;;;;;;;22.32;12.47;;;;;;;18.48;90.48;99441.36;1777043;80;21821;-82
2021/06/11 04:29:18;;;;;;;34.27;15.63;;;;;;;18.46;90.91;99438.56;1779432;80;21339;-82
2021/06/11 04:32:23;;;;;;;33.67;16.90;;;;;;;18.44;91.31;99433.25;1779113;80;21318;-82
2021/06/11 04:35:36;;;;;;;30.48;17.37;;;;;;;18.53;91.52;99427.61;1779595;80;21173;-82
2021/06/11 04:38:50;;;;;;;31.68;17.35;;;;;;;18.66;91.77;99434.77;1805540;79;21150;-82
2021/06/11 04:41:56;;;;;;;34.60;17.87;;;;;;;18.92;91.44;99438.02;1800879;79;21152;-82
2021/06/11 04:45:02;;;;;;;27.13;16.10;;;;;;;19.06;89.96;99447.12;1792300;79;21303;-82
2021/06/11 04:48:07;;;;;;;26.87;15.13;;;;;;;19.24;90.49;99450.70;1786561;79;21292;-83
2021/06/11 04:51:14;;;;;;;28.87;15.78;;;;;;;19.48;90.24;99449.42;1798219;79;21791;-82
2021/06/11 04:54:19;;;;;;;27.27;15.53;;;;;;;19.69;88.84;99452.50;1799716;79;21228;-82
2021/06/11 04:57:25;;;;;;;19.77;12.50;;;;;;;19.85;87.83;99455.20;1800404;79;21332;-83
2021/06/11 05:00:31;;;;;;;21.57;13.48;;;;;;;20.00;87.24;99454.58;1796836;78;21273;-82
2021/06/11 05:03:36;;;;;;;25.23;14.65;;;;;;;20.08;87.01;99454.10;1794936;79;21350;-81
2021/06/11 05:06:41;;;;;;;20.88;14.28;;;;;;;20.24;87.10;99454.30;1797612;79;21255;-81
2021/06/11 05:09:46;;;;;;;22.20;12.93;;;;;;;20.60;86.59;99452.75;1797358;78;21246;-82
2021/06/11 05:12:52;;;;;;;21.65;13.13;;;;;;;21.02;85.58;99459.80;1794157;78;21279;-82
2021/06/11 05:15:58;;;;;;;18.37;11.75;;;;;;;21.27;84.07;99448.62;1787946;79;21320;-82
2021/06/11 05:19:06;;;;;;;26.12;13.58;;;;;;;21.48;82.77;99446.27;1791125;79;21906;-83
2021/06/11 05:22:11;;;;;;;25.17;12.85;;;;;;;21.50;81.69;99447.39;1792466;79;21304;-83
2021/06/11 05:25:17;;;;;;;22.13;12.25;;;;;;;21.52;81.67;99450.20;1794617;78;21919;-84
2021/06/11 05:28:23;;;;;;;22.22;12.58;;;;;;;21.72;81.97;99448.62;1789823;78;21362;-83
2021/06/11 05:31:30;;;;;;;17.85;10.40;;;;;;;21.88;80.54;99448.45;1791201;78;21271;-83
2021/06/11 05:34:36;;;;;;;24.37;12.73;;;;;;;21.94;81.02;99445.96;1786941;78;21302;-85
2021/06/11 05:37:41;;;;;;;23.42;14.07;;;;;;;22.11;80.58;99456.94;1785780;78;21368;-84
2021/06/11 05:40:47;;;;;;;27.15;12.58;;;;;;;22.23;79.05;99450.28;1784651;78;21330;-84
2021/06/11 05:43:53;;;;;;;19.60;11.12;;;;;;;22.31;78.19;99453.93;1785990;79;21748;-84
2021/06/11 05:46:59;;;;;;;29.07;12.80;;;;;;;22.52;77.33;99458.42;1788725;78;21362;-84
2021/06/11 05:50:04;;;;;;;23.10;12.78;;;;;;;22.66;77.11;99465.70;1784812;79;21200;-84
2021/06/11 05:53:10;;;;;;;97.45;31.12;;;;;;;22.74;76.44;99466.55;1780241;79;21795;-83
2021/06/11 05:56:14;;;;;;;30.70;15.83;;;;;;;22.87;77.23;99467.97;1789145;78;21263;-82
2021/06/11 05:59:19;;;;;;;26.30;13.38;;;;;;;23.03;75.36;99473.02;1789510;78;21810;-83
2021/06/11 06:02:24;;;;;;;20.32;11.90;;;;;;;23.17;74.38;99468.00;1785574;78;21879;-83
2021/06/11 06:05:28;;;;;;;25.35;13.55;;;;;;;23.23;73.54;99474.41;1795606;79;21243;-82
2021/06/11 06:08:33;;;;;;;22.87;13.65;;;;;;;23.16;73.79;99476.09;1794005;79;21287;-82
2021/06/11 06:11:38;;;;;;;24.72;13.35;;;;;;;23.15;73.26;99468.84;1793960;79;21279;-80
2021/06/11 06:14:45;;;;;;;27.62;13.38;;;;;;;23.21;72.31;99470.51;1794889;78;21287;-82
2021/06/11 06:17:50;;;;;;;28.57;14.93;;;;;;;23.21;72.52;99464.92;1790874;78;21286;-84
2021/06/11 06:20:55;;;;;;;28.30;12.45;;;;;;;23.31;73.54;99461.86;1795337;78;21299;-82
2021/06/11 06:24:01;;;;;;;19.17;10.68;;;;;;;23.49;74.44;99471.04;1797662;79;21129;-82
2021/06/11 06:27:05;;;;;;;18.27;9.68;;;;;;;23.64;72.05;99471.59;1792423;79;21280;-82
2021/06/11 06:30:15;;;;;;;27.10;11.55;;;;;;;23.61;70.42;99469.33;1720584;82;21327;-81
2021/06/11 06:33:20;;;;;;;23.30;11.85;;;;;;;23.45;71.08;99472.16;1783801;78;21239;-82
2021/06/11 06:36:25;;;;;;;22.58;11.90;;;;;;;23.56;72.57;99474.36;1787069;79;21294;-83
2021/06/11 06:39:30;;;;;;;30.00;12.65;;;;;;;23.88;70.76;99475.99;1775930;79;21882;-82
2021/06/11 06:42:36;;;;;;;50.95;17.82;;;;;;;24.15;69.58;99477.02;1787016;79;22235;-81
2021/06/11 06:45:41;;;;;;;24.27;11.60;;;;;;;24.42;70.25;99479.45;1794497;79;21306;-83
2021/06/11 06:48:46;;;;;;;19.60;11.40;;;;;;;24.59;68.92;99481.84;1789141;79;21353;-82
2021/06/11 06:51:54;;;;;;;42.30;16.23;;;;;;;24.72;68.65;99472.82;1786614;78;21306;-83
2021/06/11 06:54:59;;;;;;;26.17;12.50;;;;;;;24.84;68.98;99472.45;1779520;79;21955;-83
2021/06/11 06:58:05;;;;;;;24.25;12.35;;;;;;;24.88;68.09;99476.34;1789822;79;21596;-83
2021/06/11 07:01:11;;;;;;;34.27;14.65;;;;;;;24.99;67.31;99480.17;1791731;79;21278;-81
2021/06/11 07:04:20;;;;;;;45.63;16.12;;;;;;;25.08;67.52;99473.97;1787093;79;21358;-82
2021/06/11 07:07:26;;;;;;;31.15;11.20;;;;;;;25.28;66.92;99481.38;1781044;79;21727;-82
2021/06/11 07:10:31;;;;;;;19.75;8.10;;;;;;;25.55;66.10;99473.28;1789210;79;21262;-82
2021/06/11 07:13:37;;;;;;;12.40;7.22;;;;;;;25.78;64.31;99480.62;1787234;79;21776;-82
2021/06/11 07:16:43;;;;;;;14.75;7.00;;;;;;;25.86;64.32;99478.58;1785563;79;21771;-82
2021/06/11 07:19:49;;;;;;;8.58;5.40;;;;;;;25.94;63.42;99483.53;1788874;79;21301;-82
2021/06/11 07:22:54;;;;;;;9.15;5.78;;;;;;;26.07;63.76;99479.19;1785624;79;21268;-82
2021/06/11 07:26:02;;;;;;;13.50;5.53;;;;;;;26.11;61.68;99482.50;1785944;79;21310;-82
2021/06/11 07:29:08;;;;;;;12.47;5.72;;;;;;;26.02;60.71;99475.02;1724613;81;21317;-82
2021/06/11 07:32:13;;;;;;;9.15;5.20;;;;;;;25.87;60.39;99471.83;1753938;81;21306;-82
2021/06/11 07:35:21;;;;;;;26.40;9.28;;;;;;;25.62;60.22;99469.55;1753337;81;21291;-83
2021/06/11 07:38:27;;;;;;;27.15;9.25;;;;;;;25.34;61.99;99462.83;1754936;81;21255;-83
2021/06/11 07:41:33;;;;;;;17.75;7.00;;;;;;;25.23;62.27;99462.10;1751101;80;22879;-83
2021/06/11 07:44:40;;;;;;;24.20;7.92;;;;;;;25.27;62.27;99457.33;1757940;80;21326;-85
2021/06/11 07:47:45;;;;;;;10.75;5.10;;;;;;;25.43;62.40;99460.23;1759204;80;21398;-84
2021/06/11 07:50:56;;;;;;;8.95;5.40;;;;;;;25.64;60.65;99460.31;1761091;81;21141;-84
2021/06/11 07:54:01;;;;;;;10.20;5.15;;;;;;;25.66;59.72;99453.84;1759622;81;21318;-83
2021/06/11 07:57:07;;;;;;;11.60;5.03;;;;;;;25.73;60.34;99455.70;1735399;81;21323;-83
2021/06/11 08:00:13;;;;;;;6.87;4.50;;;;;;;25.88;59.94;99450.55;1734196;82;21318;-84
2021/06/11 08:03:20;;;;;;;7.62;4.40;;;;;;;26.04;59.76;99453.98;1729598;82;21247;-84
2021/06/11 08:06:26;;;;;;;7.37;4.58;;;;;;;26.13;58.12;99459.20;1738083;81;21288;-84
2021/06/11 08:09:33;;;;;;;7.87;4.60;;;;;;;26.12;58.52;99458.94;1748588;81;21285;-85
2021/06/11 08:12:38;;;;;;;9.68;4.15;;;;;;;26.09;59.01;99451.12;1739738;82;21184;-84
2021/06/11 08:15:43;;;;;;;9.75;4.08;;;;;;;26.17;58.05;99453.84;1735382;82;21351;-84
2021/06/11 08:18:50;;;;;;;8.85;3.83;;;;;;;26.30;56.32;99457.31;1739460;81;21310;-83
2021/06/11 08:21:56;;;;;;;7.42;4.10;;;;;;;26.45;54.94;99446.48;1737106;82;21747;-83
2021/06/11 08:25:02;;;;;;;5.85;3.17;;;;;;;26.64;54.90;99452.92;1735903;81;21344;-84
2021/06/11 08:28:08;;;;;;;5.15;3.27;;;;;;;26.83;53.47;99446.47;1736616;82;21303;-84
2021/06/11 08:31:16;;;;;;;7.78;3.35;;;;;;;26.93;52.56;99446.30;1738822;82;21237;-83
2021/06/11 08:34:21;;;;;;;6.53;3.42;;;;;;;26.99;52.52;99449.28;1727546;81;21319;-83
2021/06/11 08:37:26;;;;;;;5.20;3.52;;;;;;;26.87;52.13;99439.13;1738245;81;21997;-83
2021/06/11 08:40:31;;;;;;;7.72;3.92;;;;;;;26.54;51.93;99437.66;1738287;82;21355;-84
2021/06/11 08:43:36;;;;;;;5.22;3.62;;;;;;;26.37;53.13;99438.70;1738471;81;21283;-82
2021/06/11 08:46:42;;;;;;;6.22;3.87;;;;;;;26.35;53.21;99438.16;1713497;82;21910;-84
2021/06/11 08:49:47;;;;;;;6.08;3.50;;;;;;;26.51;53.85;99428.44;1729899;81;21202;-83
2021/06/11 08:52:53;;;;;;;6.45;2.85;;;;;;;26.78;54.42;99422.71;1743405;80;22430;-82
2021/06/11 08:55:59;;;;;;;4.78;2.90;;;;;;;27.03;52.07;99423.69;1735965;80;21315;-82
2021/06/11 08:59:05;;;;;;;5.25;3.10;;;;;;;27.03;50.57;99409.65;1741633;80;21193;-82
2021/06/11 09:02:11;;;;;;;10.23;3.72;;;;;;;26.84;51.39;99415.88;1736967;80;21676;-82
2021/06/11 09:05:17;;;;;;;5.95;3.50;;;;;;;26.63;52.32;99416.20;1738951;80;21896;-82
2021/06/11 09:08:27;;;;;;;7.30;3.87;;;;;;;26.32;53.07;99417.19;1713495;82;21815;-82
2021/06/11 09:11:37;;;;;;;7.70;3.80;;;;;;;26.09;52.92;99415.27;1737793;82;21858;-82
2021/06/11 09:14:42;;;;;;;7.28;3.58;;;;;;;25.83;53.68;99417.54;1737683;82;21295;-82
2021/06/11 09:17:55;;;;;;;6.37;3.92;;;;;;;25.67;54.54;99421.06;1739781;82;21201;-82
2021/06/11 09:21:01;;;;;;;8.03;5.17;;;;;;;25.50;55.50;99427.11;1741484;80;21313;-82
2021/06/11 09:24:23;;;;;;;3.33;2.62;;;;;;;25.43;57.29;99430.84;1727732;81;21339;-82
2021/06/11 09:27:28;;;;;;;2.70;1.92;;;;;;;25.46;58.82;99430.27;1753013;81;21351;-82
2021/06/11 09:30:46;;;;;;;4.33;2.17;;;;;;;25.53;59.56;99432.70;1745521;81;21530;-83
2021/06/11 09:33:52;;;;;;;4.70;1.80;;;;;;;25.53;61.38;99429.91;1783251;79;21483;-82
2021/06/11 09:37:11;;;;;;;3.10;2.17;;;;;;;25.47;61.75;99433.33;1789279;79;21232;-83
2021/06/11 09:40:19;;;;;;;3.80;2.20;;;;;;;25.23;62.38;99435.52;1784479;79;21273;-84
2021/06/11 09:43:24;;;;;;;3.25;2.40;;;;;;;24.86;62.37;99438.88;1781973;79;21388;-83
2021/06/11 09:46:30;;;;;;;4.28;2.80;;;;;;;24.51;62.36;99427.38;1787711;79;21658;-83
2021/06/11 09:49:48;;;;;;;5.92;2.67;;;;;;;24.27;61.97;99432.80;1791354;78;21687;-82
2021/06/11 09:53:13;;;;;;;5.35;2.40;;;;;;;24.18;63.04;99438.71;1793016;78;21215;-82
2021/06/11 09:56:34;;;;;;;2.65;2.15;;;;;;;24.17;61.32;99434.25;1790575;79;21921;-80
2021/06/11 09:59:49;;;;;;;5.12;2.90;;;;;;;24.34;62.02;99445.08;1784756;79;21283;-84
2021/06/11 10:02:57;;;;;;;5.40;2.60;;;;;;;24.39;61.51;99449.27;1731290;81;21291;-85
2021/06/11 10:06:05;;;;;;;7.65;2.77;;;;;;;24.22;63.15;99449.03;1790681;79;21788;-85
2021/06/11 10:09:14;;;;;;;5.78;3.10;;;;;;;24.16;65.42;99448.78;1784946;79;21283;-84
2021/06/11 10:12:19;;;;;;;3.60;2.12;;;;;;;24.13;65.84;99440.97;1791942;79;21291;-83
2021/06/11 10:15:24;;;;;;;6.10;2.58;;;;;;;24.26;65.82;99444.27;1790045;79;21172;-82
2021/06/11 10:18:29;;;;;;;3.00;1.95;;;;;;;24.58;64.61;99452.23;1786010;79;21807;-83
2021/06/11 10:21:42;;;;;;;3.45;1.65;;;;;;;24.94;58.66;99451.42;1730279;81;21188;-86
2021/06/11 10:24:48;;;;;;;2.45;1.60;;;;;;;25.10;55.75;99459.97;1731903;81;21212;-86
2021/06/11 10:27:53;;;;;;;1.80;1.50;;;;;;;24.87;55.65;99463.48;1694971;83;21311;-86
2021/06/11 10:31:05;;;;;;;6.35;1.65;;;;;;;24.53;55.00;99470.43;1690505;83;21314;-86
2021/06/11 10:34:12;;;;;;;1.80;1.45;;;;;;;24.31;55.36;99477.77;1699347;83;21386;-85
2021/06/11 10:37:40;;;;;;;5.75;1.40;;;;;;;24.16;54.54;99474.49;1659283;83;22279;-84
2021/06/11 10:40:47;;;;;;;4.00;1.87;;;;;;;24.01;55.83;99471.20;1694175;83;21306;-81
2021/06/11 10:43:52;;;;;;;5.10;1.75;;;;;;;24.16;56.57;99468.34;1669538;83;21303;-81
2021/06/11 10:46:57;;;;;;;8.88;2.35;;;;;;;24.45;56.26;99469.06;1688999;83;22357;-81
2021/06/11 10:50:08;;;;;;;3.08;1.80;;;;;;;24.65;54.44;99452.16;1693260;83;21189;-80
2021/06/11 10:53:28;;;;;;;4.53;1.90;;;;;;;24.77;52.94;99463.00;1688950;83;21322;-81
2021/06/11 10:56:34;;;;;;;3.42;1.90;;;;;;;24.85;53.24;99460.98;1697465;83;21283;-81
2021/06/11 10:59:49;;;;;;;3.42;1.70;;;;;;;24.73;52.36;99447.36;1701487;83;21745;-82
2021/06/11 11:02:55;;;;;;;4.80;2.40;;;;;;;24.73;53.72;99441.77;1670176;85;21344;-82
2021/06/11 11:06:00;;;;;;;7.90;1.82;;;;;;;24.77;52.23;99439.80;1649982;85;21305;-82
2021/06/11 11:09:07;;;;;;;5.45;1.52;;;;;;;24.86;51.51;99435.25;1660877;85;21189;-84
2021/06/11 11:12:12;;;;;;;4.50;1.60;;;;;;;25.02;50.33;99442.38;1690190;83;22179;-84
2021/06/11 11:15:19;;;;;;;3.70;1.60;;;;;;;25.10;51.43;99445.16;1687240;83;21761;-81
2021/06/11 11:18:30;;;;;;;3.10;1.72;;;;;;;25.10;50.99;99445.98;1688346;83;21334;-81
2021/06/11 11:21:39;;;;;;;1.98;1.32;;;;;;;25.13;50.92;99447.38;1692459;83;21425;-81
2021/06/11 11:24:45;;;;;;;2.65;1.25;;;;;;;25.10;50.37;99462.77;1673169;84;22422;-81
2021/06/11 11:27:59;;;;;;;2.40;1.37;;;;;;;25.01;49.84;99467.86;1661149;84;21763;-81
2021/06/11 11:31:05;;;;;;;2.70;1.80;;;;;;;24.81;50.56;99477.24;1673178;84;21189;-81
2021/06/11 11:34:09;;;;;;;13.65;4.50;;;;;;;24.65;52.27;99472.30;1719072;82;21228;-81
2021/06/11 11:37:14;;;;;;;5.17;2.15;;;;;;;24.54;52.64;99482.71;1712399;82;21167;-81
2021/06/11 11:40:21;;;;;;;10.03;3.12;;;;;;;24.42;53.87;99490.06;1676961;84;21300;-81
2021/06/11 11:43:25;;;;;;;12.13;3.70;;;;;;;24.29;54.45;99506.02;1687637;84;21901;-81
2021/06/11 11:46:30;;;;;;;12.65;3.47;;;;;;;24.19;55.09;99514.44;1733116;82;21595;-81
2021/06/11 11:49:36;;;;;;;14.98;4.17;;;;;;;24.06;56.61;99515.88;1728641;82;21327;-81
2021/06/11 11:52:43;;;;;;;28.92;6.60;;;;;;;23.88;58.94;99522.91;1701673;82;21294;-81
2021/06/11 11:55:49;;;;;;;12.35;3.75;;;;;;;23.68;60.07;99525.75;1678025;85;21283;-81
2021/06/11 11:58:54;;;;;;;4.28;2.08;;;;;;;23.47;60.92;99527.67;1728738;82;21845;-80
2021/06/11 12:40:15;;;;;;;2.37;1.27;;;;;;;20.09;75.22;99464.13;1790850;79;28070;-77
2021/06/11 12:43:27;;;;;;;1.67;1.25;;;;;;;20.08;75.61;99458.82;1762304;81;21291;-77
2021/06/11 12:46:26;;;;;;;4.87;1.52;;;;;;;20.02;75.46;99456.53;1753469;81;21359;-77
2021/06/11 12:49:32;;;;;;;5.95;1.70;;;;;;;19.94;76.04;99448.66;1745057;81;21310;-77
2021/06/11 12:52:38;;;;;;;3.80;1.55;;;;;;;19.87;76.50;99437.77;1752959;81;21833;-77
2021/06/11 12:55:45;;;;;;;3.83;1.32;;;;;;;19.86;77.27;99433.31;1763837;81;21303;-76
2021/06/11 12:58:51;;;;;;;3.20;1.60;;;;;;;19.93;77.12;99428.95;1760033;81;21248;-77
2021/06/11 13:01:57;;;;;;;3.65;1.40;;;;;;;20.07;77.05;99427.45;1739009;81;21228;-77
2021/06/11 13:05:03;;;;;;;1.82;1.22;;;;;;;20.28;77.14;99445.72;1749923;81;21295;-78
2021/06/11 13:08:09;;;;;;;3.90;1.80;;;;;;;20.42;77.35;99447.84;1744802;81;21239;-78
2021/06/11 13:11:15;;;;;;;2.33;1.50;;;;;;;20.61;78.44;99451.13;1741234;81;21334;-77
2021/06/11 13:14:20;;;;;;;1.80;1.20;;;;;;;20.86;77.29;99449.12;1741311;81;21310;-78
2021/06/11 13:17:27;;;;;;;3.15;1.70;;;;;;;21.13;76.29;99460.75;1741480;81;21200;-77
2021/06/11 13:20:32;;;;;;;2.45;1.30;;;;;;;21.35;74.80;99471.22;1749114;81;21302;-77
2021/06/11 13:23:37;;;;;;;4.15;1.50;;;;;;;21.54;74.33;99477.19;1749626;81;21160;-76
2021/06/11 13:26:43;;;;;;;4.28;1.65;;;;;;;21.72;72.52;99472.29;1742811;81;21283;-77
2021/06/11 13:29:49;;;;;;;2.33;1.10;;;;;;;21.93;70.37;99481.05;1731452;81;21324;-77
2021/06/11 13:32:55;;;;;;;1.57;0.98;;;;;;;22.15;68.72;99476.14;1728846;83;21834;-77
2021/06/11 13:36:02;;;;;;;1.85;1.22;;;;;;;22.38;66.99;99476.22;1702569;83;21351;-77
2021/06/11 13:39:07;;;;;;;2.25;1.30;;;;;;;22.53;66.08;99469.84;1725907;82;21320;-77
2021/06/11 13:42:13;;;;;;;1.72;1.12;;;;;;;22.76;65.53;99478.81;1734389;82;21803;-77
2021/06/11 13:45:21;;;;;;;3.12;1.10;;;;;;;22.90;63.23;99481.37;1732043;82;21736;-77
2021/06/11 13:48:28;;;;;;;2.12;0.85;;;;;;;23.07;61.76;99478.33;1734628;82;21198;-77
2021/06/11 13:51:32;;;;;;;1.12;0.90;;;;;;;23.18;59.48;99478.59;1733565;82;21225;-76
2021/06/11 13:54:40;;;;;;;2.83;0.98;;;;;;;23.27;56.59;99485.28;1734038;82;21375;-77
2021/06/11 13:57:46;;;;;;;1.35;0.90;;;;;;;23.37;56.12;99478.86;1735340;82;21348;-77
2021/06/11 14:00:52;;;;;;;0.90;0.80;;;;;;;23.47;55.10;99474.66;1735311;82;21208;-77
2021/06/11 14:03:58;;;;;;;2.62;1.10;;;;;;;23.49;54.09;99473.83;1735510;82;21736;-78
2021/06/11 14:07:05;;;;;;;4.28;1.10;;;;;;;23.46;53.36;99459.03;1735496;82;21244;-78
2021/06/11 14:10:13;;;;;;;1.57;1.20;;;;;;;23.33;54.28;99453.46;1734477;82;21226;-77
2021/06/11 14:13:19;;;;;;;1.52;1.20;;;;;;;23.21;55.93;99456.56;1735617;82;21193;-77
2021/06/11 14:16:25;;;;;;;1.30;1.02;;;;;;;23.07;55.65;99462.98;1735518;82;21747;-77
2021/06/11 14:19:30;;;;;;;4.87;1.20;;;;;;;22.99;57.08;99465.77;1735215;82;21320;-77
2021/06/11 14:22:36;;;;;;;1.30;1.20;;;;;;;22.89;56.97;99464.37;1735526;82;21205;-77
2021/06/11 14:25:46;;;;;;;2.08;1.12;;;;;;;22.83;57.09;99459.87;1734562;82;21733;-77
2021/06/11 14:28:48;;;;;;;3.12;1.27;;;;;;;22.81;58.17;99455.13;1735398;81;21335;-77
2021/06/11 14:31:53;;;;;;;3.65;1.27;;;;;;;22.79;60.14;99455.41;1735523;82;21841;-77
2021/06/11 14:34:58;;;;;;;1.55;1.20;;;;;;;22.77;61.06;99452.05;1735617;82;21842;-77
2021/06/11 14:38:03;;;;;;;3.60;1.00;;;;;;;22.78;61.47;99448.73;1735721;82;21181;-77
2021/06/11 14:41:11;;;;;;;5.00;1.10;;;;;;;22.79;61.89;99442.03;1732394;82;21359;-78
2021/06/11 14:44:17;;;;;;;4.10;1.35;;;;;;;22.75;64.92;99447.31;1731981;83;21862;-77
2021/06/11 14:47:22;;;;;;;1.65;1.30;;;;;;;22.66;66.96;99450.37;1732572;83;21214;-77
2021/06/11 14:50:28;;;;;;;7.60;1.47;;;;;;;22.54;67.12;99454.83;1731057;83;21791;-77
2021/06/11 14:53:37;;;;;;;2.20;1.40;;;;;;;22.28;68.29;99451.13;1731251;83;21724;-76
2021/06/11 14:56:46;;;;;;;2.90;1.25;;;;;;;22.08;69.74;99453.26;1732259;83;21268;-77
2021/06/11 14:59:52;;;;;;;1.70;1.37;;;;;;;21.95;71.22;99457.93;1732675;83;21206;-76
2021/06/11 15:02:57;;;;;;;3.20;1.40;;;;;;;21.88;71.17;99467.10;1732568;83;21320;-77
2021/06/11 15:06:04;;;;;;;3.67;1.20;;;;;;;21.85;71.54;99475.42;1732573;83;21310;-77
2021/06/11 15:09:09;;;;;;;2.95;1.62;;;;;;;21.82;72.17;99477.91;1732672;83;21201;-77